Time;durP1;ratioP1;P1;durP2;ratioP2;P2;SDS_P1;SDS_P2;PMS_P1;PMS_P2;Temp;Humidity;BMP_temperature;BMP_pressure;BME280_temperature;BME280_humidity;BME280_pressure;Samples;Min_cycle;Max_cycle;Signal;HPM_P1;HPM_P2
2023/04/11 00:01:20;;;;;;;21.60;2.78;;;;;;;-146.27;100.00;83814.72;5090623;28;20024;-64
2023/04/11 00:03:46;;;;;;;26.67;3.33;;;;;;;-146.27;100.00;83788.59;5086928;28;20468;-65
2023/04/11 00:06:11;;;;;;;23.23;3.17;;;;;;;-146.27;100.00;83810.69;5092265;28;20040;-65
2023/04/11 00:08:36;;;;;;;14.88;2.63;;;;;;;-146.27;100.00;83822.75;5085281;28;20035;-65
2023/04/11 00:11:02;;;;;;;17.83;2.60;;;;;;;-146.27;100.00;83808.69;5091671;28;20073;-65
2023/04/11 00:13:27;;;;;;;12.93;2.70;;;;;;;-146.27;100.00;83822.75;5091473;28;20468;-65
2023/04/11 00:15:54;;;;;;;20.73;2.85;;;;;;;-146.27;100.00;83764.47;5092225;28;20459;-65
2023/04/11 00:18:20;;;;;;;21.98;2.92;;;;;;;-146.27;100.00;83770.50;5088908;28;20161;-64
2023/04/11 00:20:45;;;;;;;20.52;2.38;;;;;;;-146.27;100.00;83766.47;5092817;28;20046;-65
2023/04/11 00:23:11;;;;;;;18.27;2.10;;;;;;;-146.27;100.00;83790.59;5091298;28;20451;-65
2023/04/11 00:25:37;;;;;;;16.83;2.30;;;;;;;-146.27;100.00;83794.63;5092943;28;20391;-65
2023/04/11 00:28:02;;;;;;;13.77;2.67;;;;;;;-146.27;100.00;83790.59;5085684;28;20468;-65
2023/04/11 00:30:28;;;;;;;17.33;2.05;;;;;;;-146.27;100.00;83786.56;5091576;28;20039;-65
2023/04/11 00:32:53;;;;;;;23.15;3.08;;;;;;;-146.27;100.00;83814.72;5082722;28;20020;-65
2023/04/11 00:35:19;;;;;;;16.35;2.15;;;;;;;-146.27;100.00;83762.47;5091990;28;20038;-65
2023/04/11 00:37:45;;;;;;;23.02;2.15;;;;;;;-146.27;100.00;83798.63;5090459;28;20094;-65
2023/04/11 00:40:13;;;;;;;9.27;1.52;;;;;;;-146.27;100.00;83798.63;5092201;28;20016;-65
2023/04/11 00:42:38;;;;;;;11.68;1.98;;;;;;;-146.27;99.00;83802.66;5083678;28;20036;-65
2023/04/11 00:45:04;;;;;;;11.52;1.77;;;;;;;-146.27;98.39;83718.25;5082398;28;20028;-65
2023/04/11 00:47:32;;;;;;;13.40;2.55;;;;;;;-146.27;97.09;83794.63;5091665;28;20486;-66
2023/04/11 00:49:57;;;;;;;6.65;1.35;;;;;;;-146.27;95.26;83774.53;5088199;28;20074;-66
2023/04/11 00:52:23;;;;;;;14.25;1.88;;;;;;;-146.27;94.90;83798.63;5091786;28;20103;-65
2023/04/11 00:54:49;;;;;;;13.20;1.70;;;;;;;-146.27;94.96;83778.53;5091576;28;20110;-64
2023/04/11 00:57:15;;;;;;;11.80;2.35;;;;;;;-146.27;94.83;83768.50;5092359;28;20074;-66
2023/04/11 00:59:41;;;;;;;14.27;2.25;;;;;;;-146.27;94.79;83778.53;5077815;28;20032;-66
2023/04/11 01:02:07;;;;;;;20.10;2.83;;;;;;;-146.27;95.25;83770.50;5083437;28;20019;-66
2023/04/11 01:04:32;;;;;;;9.98;1.83;;;;;;;-146.27;95.86;83816.72;5087085;28;20058;-66
2023/04/11 01:07:04;;;;;;;14.20;1.48;;;;;;;-146.27;95.79;83772.50;5083807;28;20197;-65
2023/04/11 01:09:32;;;;;;;13.43;1.92;;;;;;;-146.27;95.10;83766.47;5088047;28;20039;-66
2023/04/11 01:11:58;;;;;;;9.98;2.15;;;;;;;-146.27;95.08;83822.75;5082960;28;20369;-65
2023/04/11 01:14:25;;;;;;;11.73;1.65;;;;;;;-146.27;93.88;83826.75;5086767;28;20024;-65
2023/04/11 01:16:51;;;;;;;13.02;2.20;;;;;;;-146.27;92.88;83742.38;5089835;28;20032;-65
2023/04/11 01:19:22;;;;;;;16.10;1.40;;;;;;;-146.27;92.34;83806.66;5091188;28;20126;-65
2023/04/11 01:21:50;;;;;;;10.73;1.42;;;;;;;-146.27;91.92;83768.50;5090343;28;20528;-66
2023/04/11 01:24:16;;;;;;;13.68;1.63;;;;;;;-146.27;92.69;83754.44;5091239;28;20024;-65
2023/04/11 01:26:42;;;;;;;16.65;1.42;;;;;;;-146.27;92.15;83818.72;5090051;28;20055;-65
2023/04/11 01:29:08;;;;;;;11.18;1.20;;;;;;;-146.27;92.47;83816.72;5086943;28;20035;-66
2023/04/11 01:31:33;;;;;;;8.23;1.17;;;;;;;-146.27;93.15;83798.63;5089471;28;20042;-65
2023/04/11 01:34:03;;;;;;;12.07;1.83;;;;;;;-146.27;93.71;83802.66;5090261;28;20082;-65
2023/04/11 01:36:30;;;;;;;9.20;1.48;;;;;;;-146.27;93.63;83790.59;5087798;28;20027;-67
2023/04/11 01:38:56;;;;;;;12.30;2.20;;;;;;;-146.27;94.21;83810.69;5091985;28;20024;-65
2023/04/11 01:41:24;;;;;;;13.40;1.83;;;;;;;-146.27;93.87;83822.75;5078414;28;20158;-66
2023/04/11 01:43:49;;;;;;;9.13;1.42;;;;;;;-146.27;93.00;83854.91;5092473;28;20032;-65
2023/04/11 01:46:15;;;;;;;7.72;1.30;;;;;;;-146.27;93.56;83822.75;5090011;28;20118;-65
2023/04/11 01:48:41;;;;;;;6.90;1.20;;;;;;;-146.27;94.24;83784.56;5090232;28;20503;-67
2023/04/11 01:51:07;;;;;;;11.13;1.58;;;;;;;-146.27;95.15;83850.88;5090225;28;20098;-67
2023/04/11 01:53:32;;;;;;;12.60;2.08;;;;;;;-146.27;94.72;83818.72;5088552;28;20077;-68
2023/04/11 01:55:57;;;;;;;8.10;2.22;;;;;;;-146.27;95.35;83806.66;5091380;28;20655;-69
2023/04/11 01:58:23;;;;;;;13.82;1.60;;;;;;;-146.27;95.65;83846.84;5087771;28;20016;-67
2023/04/11 02:00:48;;;;;;;9.45;2.13;;;;;;;-146.27;95.19;83832.78;5090573;28;20032;-69
2023/04/11 02:03:16;;;;;;;14.55;2.55;;;;;;;-146.27;94.88;83830.78;5084443;28;20071;-68
2023/04/11 02:05:42;;;;;;;9.75;1.58;;;;;;;-146.27;95.26;83816.72;5080962;28;20017;-67
2023/04/11 02:08:07;;;;;;;10.10;1.95;;;;;;;-146.27;95.74;83818.72;5079992;28;20028;-67
2023/04/11 02:10:33;;;;;;;18.15;2.22;;;;;;;-146.27;96.65;83832.78;5091345;28;20020;-66
2023/04/11 02:12:58;;;;;;;10.90;1.75;;;;;;;-146.27;96.62;83802.66;5089090;28;20056;-66
2023/04/11 02:15:23;;;;;;;18.05;2.33;;;;;;;-146.27;97.54;83820.75;5089155;28;20423;-67
2023/04/11 02:17:52;;;;;;;20.13;2.22;;;;;;;-146.27;98.15;83838.81;5089838;28;20020;-67
2023/04/11 02:20:20;;;;;;;14.93;2.20;;;;;;;-146.27;98.73;83842.84;5090893;28;20016;-67
2023/04/11 02:22:46;;;;;;;14.85;1.77;;;;;;;-146.27;99.20;83846.84;5090735;28;20057;-68
2023/04/11 02:25:11;;;;;;;16.52;1.85;;;;;;;-146.27;98.84;83862.94;5090376;28;20456;-67
2023/04/11 02:27:36;;;;;;;16.38;2.13;;;;;;;-146.27;98.47;83864.94;5086230;28;20898;-67
2023/04/11 02:30:04;;;;;;;9.98;1.20;;;;;;;-146.27;96.26;83802.66;5085997;28;20066;-67
2023/04/11 02:32:33;;;;;;;10.38;1.70;;;;;;;-146.27;96.03;83852.88;5088004;28;20039;-67
2023/04/11 02:34:58;;;;;;;14.68;1.15;;;;;;;-146.27;95.83;83854.91;5083689;28;20031;-67
2023/04/11 02:37:24;;;;;;;15.02;1.88;;;;;;;-146.27;96.04;83868.97;5090181;28;20028;-67
2023/04/11 02:39:50;;;;;;;10.77;1.13;;;;;;;-146.27;96.50;83830.78;5090592;28;20016;-67
2023/04/11 02:42:15;;;;;;;12.85;2.15;;;;;;;-146.27;96.62;83903.13;5088228;28;20467;-67
2023/04/11 02:44:40;;;;;;;11.25;1.70;;;;;;;-146.27;97.48;83870.97;5090276;28;20024;-67
2023/04/11 02:47:06;;;;;;;22.27;2.55;;;;;;;-146.27;98.09;83887.06;5094025;28;20035;-68
2023/04/11 02:49:31;;;;;;;13.15;1.52;;;;;;;-146.27;99.92;83907.16;5090048;28;20039;-67
2023/04/11 02:51:57;;;;;;;11.73;2.28;;;;;;;-146.27;100.00;83879.00;5088678;28;20019;-67
2023/04/11 02:54:22;;;;;;;13.70;1.77;;;;;;;-146.27;100.00;83866.97;5089353;28;20028;-67
2023/04/11 02:56:47;;;;;;;13.48;1.63;;;;;;;-146.27;100.00;83927.25;5090895;28;20111;-66
2023/04/11 02:59:12;;;;;;;15.90;2.50;;;;;;;-146.27;100.00;83911.16;5094038;28;20467;-67
2023/04/11 03:01:38;;;;;;;8.73;2.05;;;;;;;-146.27;100.00;83935.28;5093639;28;20391;-67
2023/04/11 03:04:04;;;;;;;12.65;1.98;;;;;;;-146.27;100.00;83923.22;5087797;28;20045;-67
2023/04/11 03:06:29;;;;;;;12.50;2.08;;;;;;;-146.27;100.00;83911.16;5094449;28;20092;-67
2023/04/11 03:08:55;;;;;;;16.60;2.13;;;;;;;-146.27;100.00;83927.25;5090828;28;20036;-67
2023/04/11 03:11:20;;;;;;;11.90;1.70;;;;;;;-146.27;100.00;83927.25;5084732;28;20349;-67
2023/04/11 03:13:46;;;;;;;14.50;2.10;;;;;;;-146.27;100.00;83935.28;5087110;28;20224;-67
2023/04/11 03:16:12;;;;;;;15.80;1.92;;;;;;;-146.27;100.00;83939.31;5086408;28;20016;-66
2023/04/11 03:18:38;;;;;;;12.73;2.08;;;;;;;-146.27;99.96;83927.25;5091550;28;20153;-67
2023/04/11 03:21:06;;;;;;;17.23;2.53;;;;;;;-146.27;99.34;83931.25;5093606;28;20107;-67
2023/04/11 03:23:31;;;;;;;17.05;3.10;;;;;;;-146.27;99.10;83927.25;5091562;28;20034;-67
2023/04/11 03:25:57;;;;;;;15.65;2.13;;;;;;;-146.27;98.70;83959.41;5092635;28;20041;-67
2023/04/11 03:28:23;;;;;;;7.22;1.23;;;;;;;-146.27;98.48;83941.31;5092157;28;20024;-68
2023/04/11 03:30:49;;;;;;;8.23;2.08;;;;;;;-146.27;98.79;83929.25;5094121;28;20039;-68
2023/04/11 03:33:15;;;;;;;11.40;1.80;;;;;;;-146.27;98.50;83937.28;5092150;28;20027;-67
2023/04/11 03:35:40;;;;;;;10.30;1.52;;;;;;;-146.27;97.62;83953.38;5086536;28;20329;-67
2023/04/11 03:38:05;;;;;;;13.73;1.90;;;;;;;-146.27;97.37;83939.31;5089016;28;20040;-67
2023/04/11 03:40:31;;;;;;;9.70;1.58;;;;;;;-146.27;96.84;83923.22;5093907;28;20024;-68
2023/04/11 03:42:56;;;;;;;11.88;1.75;;;;;;;-146.27;95.58;83975.47;5090355;28;20128;-68
2023/04/11 03:45:22;;;;;;;8.38;1.45;;;;;;;-146.27;93.85;83945.31;5080537;28;20456;-68
2023/04/11 03:47:47;;;;;;;15.73;1.50;;;;;;;-146.27;93.11;83937.28;5086734;28;20058;-68
2023/04/11 03:50:13;;;;;;;7.00;1.10;;;;;;;-146.27;91.72;83951.34;5085452;28;20039;-67
2023/04/11 03:52:38;;;;;;;17.10;1.50;;;;;;;-146.27;92.17;83963.41;5091792;28;20038;-67
2023/04/11 03:55:05;;;;;;;15.02;1.60;;;;;;;-146.27;92.30;83955.38;5091835;28;20032;-68
2023/04/11 03:57:31;;;;;;;3.90;0.82;;;;;;;-146.27;91.40;83975.47;5087760;28;20028;-67
2023/04/11 03:59:57;;;;;;;7.85;1.10;;;;;;;-146.27;90.45;83943.31;5092651;28;20028;-68
2023/04/11 04:02:23;;;;;;;9.90;1.10;;;;;;;-146.27;90.87;83959.41;5092175;28;20032;-68
2023/04/11 04:04:57;;;;;;;13.15;2.45;;;;;;;-146.27;90.54;84009.63;5092207;28;20032;-67
2023/04/11 04:07:23;;;;;;;9.15;1.42;;;;;;;-146.27;89.47;83975.47;5090119;28;20520;-67
2023/04/11 04:09:49;;;;;;;10.65;2.17;;;;;;;-146.27;89.00;84019.69;5091658;28;20035;-67
2023/04/11 04:12:16;;;;;;;9.93;1.15;;;;;;;-146.27;88.97;83995.56;5086445;28;20434;-67
2023/04/11 04:14:42;;;;;;;13.60;1.98;;;;;;;-146.27;88.46;83993.56;5085695;28;20027;-66
2023/04/11 04:17:07;;;;;;;7.93;0.88;;;;;;;-146.27;88.00;83995.56;5091761;28;20494;-67
2023/04/11 04:19:33;;;;;;;5.70;1.27;;;;;;;-146.27;87.71;84035.75;5091950;28;20086;-67
2023/04/11 04:21:58;;;;;;;14.75;1.65;;;;;;;-146.27;88.21;83993.56;5087992;28;20024;-65
2023/04/11 04:24:28;;;;;;;5.72;1.13;;;;;;;-146.27;88.68;83975.47;5090873;28;20020;-65
2023/04/11 04:26:56;;;;;;;8.48;1.10;;;;;;;-146.27;89.24;84003.59;5090562;28;20038;-65
2023/04/11 04:29:22;;;;;;;10.00;1.42;;;;;;;-146.27;89.76;84013.66;5089277;28;20020;-66
2023/04/11 04:31:51;;;;;;;10.50;1.38;;;;;;;-146.27;90.34;84001.59;5091127;28;20031;-65
2023/04/11 04:34:20;;;;;;;9.30;1.38;;;;;;;-146.27;90.69;84003.59;5089002;28;20527;-65
2023/04/11 04:36:46;;;;;;;9.75;1.30;;;;;;;-146.27;91.34;84023.69;5078908;28;20478;-66
2023/04/11 04:39:18;;;;;;;12.43;1.73;;;;;;;-146.27;92.00;84041.78;5073434;28;20143;-65
2023/04/11 04:41:44;;;;;;;7.57;1.45;;;;;;;-146.27;92.58;84023.69;5091710;28;20027;-65
2023/04/11 04:44:10;;;;;;;6.95;1.73;;;;;;;-146.27;92.90;83999.59;5088588;28;20383;-65
2023/04/11 04:46:35;;;;;;;6.78;1.10;;;;;;;-146.27;93.15;83999.59;5090547;28;20066;-65
2023/04/11 04:49:04;;;;;;;8.93;1.50;;;;;;;-146.27;93.51;83971.47;5090913;28;20032;-65
2023/04/11 04:51:29;;;;;;;11.93;1.58;;;;;;;-146.27;94.27;83995.56;5081166;28;20391;-65
2023/04/11 04:53:58;;;;;;;10.35;1.50;;;;;;;-146.27;94.88;84011.66;5089743;28;20024;-65
2023/04/11 04:56:23;;;;;;;7.90;1.83;;;;;;;-146.27;95.07;83989.53;5092624;28;20088;-65
2023/04/11 04:58:49;;;;;;;9.93;1.55;;;;;;;-146.27;95.94;83985.53;5086818;28;20394;-65
2023/04/11 05:01:15;;;;;;;13.85;1.45;;;;;;;-146.27;95.88;84009.63;5087852;28;20024;-65
2023/04/11 05:03:41;;;;;;;15.77;1.60;;;;;;;-146.27;96.59;83983.50;5080039;28;20032;-65
2023/04/11 05:06:08;;;;;;;11.23;2.42;;;;;;;-146.27;96.86;83983.50;5080146;28;20044;-65
2023/04/11 05:08:33;;;;;;;11.82;2.05;;;;;;;-146.27;96.74;83953.38;5090982;28;20031;-65
2023/04/11 05:10:59;;;;;;;10.80;1.27;;;;;;;-146.27;96.46;83979.50;5090882;28;20119;-64
2023/04/11 05:13:24;;;;;;;7.82;1.17;;;;;;;-146.27;96.42;83939.31;5089550;28;20028;-64
2023/04/11 05:15:50;;;;;;;13.75;1.83;;;;;;;-146.27;96.53;83939.31;5086017;28;20063;-65
2023/04/11 05:18:15;;;;;;;17.23;2.08;;;;;;;-146.27;96.10;83933.28;5088866;28;20028;-65
2023/04/11 05:20:41;;;;;;;12.52;1.52;;;;;;;-146.27;96.05;83939.31;5091021;28;20105;-66
2023/04/11 05:23:06;;;;;;;8.63;1.23;;;;;;;-146.27;95.41;83953.38;5089140;28;20392;-66
2023/04/11 05:25:31;;;;;;;7.07;1.73;;;;;;;-146.27;95.61;83949.34;5084728;28;20032;-65
2023/04/11 05:27:57;;;;;;;12.10;2.03;;;;;;;-146.27;96.43;83901.13;5083940;28;20080;-65
2023/04/11 05:30:22;;;;;;;16.05;2.05;;;;;;;-146.27;96.87;83945.31;5089465;28;20031;-65
2023/04/11 05:32:47;;;;;;;12.73;2.17;;;;;;;-146.27;96.98;83933.28;5080573;28;20039;-65
2023/04/11 05:35:13;;;;;;;13.40;1.88;;;;;;;-146.27;97.03;83919.19;5086615;28;20463;-65
2023/04/11 05:37:39;;;;;;;11.77;1.90;;;;;;;-146.27;97.46;83919.19;5080776;28;20725;-65
2023/04/11 05:40:07;;;;;;;16.10;1.95;;;;;;;-146.27;97.40;83927.25;5080697;28;20396;-76
2023/04/11 05:42:32;;;;;;;12.93;1.77;;;;;;;-146.27;97.11;83983.50;5080450;28;20066;-67
2023/04/11 05:44:58;;;;;;;11.70;1.73;;;;;;;-146.27;95.99;83971.47;5089982;28;20080;-66
2023/04/11 05:47:23;;;;;;;14.07;2.58;;;;;;;-146.27;94.70;83919.19;5090503;28;20093;-66
2023/04/11 05:49:49;;;;;;;10.43;2.00;;;;;;;-146.27;94.25;83933.28;5084772;28;20050;-65
2023/04/11 05:52:14;;;;;;;9.85;1.52;;;;;;;-146.27;94.59;83923.22;5086485;28;20030;-65
2023/04/11 05:54:40;;;;;;;8.38;1.35;;;;;;;-146.27;94.00;83943.31;5088938;28;20024;-65
2023/04/11 05:57:06;;;;;;;15.15;2.22;;;;;;;-146.27;93.00;83923.22;5085380;28;20024;-66
2023/04/11 05:59:33;;;;;;;15.20;2.13;;;;;;;-146.27;92.96;83953.38;5089837;28;20387;-65
2023/04/11 06:01:59;;;;;;;11.85;2.03;;;;;;;-146.27;92.59;83937.28;5089161;28;20387;-65
2023/04/11 06:04:24;;;;;;;8.70;1.20;;;;;;;-146.27;92.97;83931.25;5088649;28;20031;-67
2023/04/11 06:06:51;;;;;;;20.52;3.05;;;;;;;-146.27;92.84;83925.22;5089093;28;20360;-65
2023/04/11 06:09:16;;;;;;;6.55;1.80;;;;;;;-146.27;92.47;83909.16;5084570;28;20050;-66
2023/04/11 06:11:42;;;;;;;16.25;2.35;;;;;;;-146.27;92.16;83947.34;5085579;28;20024;-66
2023/04/11 06:14:07;;;;;;;5.93;1.40;;;;;;;-146.27;92.16;83921.22;5083745;28;20020;-66
2023/04/11 06:16:35;;;;;;;9.30;2.00;;;;;;;-146.27;92.37;83901.13;5085733;28;20028;-64
2023/04/11 06:19:01;;;;;;;17.00;1.65;;;;;;;-146.27;92.39;83899.09;5089768;28;20079;-66
2023/04/11 06:21:27;;;;;;;10.25;1.90;;;;;;;-146.27;92.45;83885.03;5087468;28;20024;-66
2023/04/11 06:23:53;;;;;;;10.43;1.52;;;;;;;-146.27;92.09;83917.19;5089806;28;20036;-65
2023/04/11 06:26:18;;;;;;;14.38;1.60;;;;;;;-146.27;91.74;83907.16;5091648;28;20024;-65
2023/04/11 06:28:43;;;;;;;13.65;1.92;;;;;;;-146.27;91.68;83891.06;5092367;28;20437;-65
2023/04/11 06:31:09;;;;;;;8.38;1.80;;;;;;;-146.27;91.74;83866.97;5091373;28;20024;-65
2023/04/11 06:33:35;;;;;;;18.38;2.28;;;;;;;-146.27;91.29;83866.97;5090033;28;20126;-65
2023/04/11 06:36:00;;;;;;;12.82;2.20;;;;;;;-146.27;91.46;83860.94;5092491;28;20061;-64
2023/04/11 06:38:26;;;;;;;18.27;2.65;;;;;;;-146.27;91.58;83850.88;5093327;28;20522;-65
2023/04/11 06:40:53;;;;;;;17.00;2.28;;;;;;;-146.27;91.61;83864.94;5093283;28;20111;-65
2023/04/11 06:43:18;;;;;;;15.70;2.05;;;;;;;-146.27;92.07;83860.94;5092999;28;20540;-66
2023/04/11 06:45:45;;;;;;;17.35;1.90;;;;;;;-146.27;91.58;83846.84;5082157;28;20028;-64
2023/04/11 06:48:11;;;;;;;12.23;1.90;;;;;;;-146.27;91.27;83885.03;5083689;28;20408;-66
2023/04/11 06:50:40;;;;;;;15.02;1.90;;;;;;;-146.27;90.94;83830.78;5087268;28;20032;-65
2023/04/11 06:53:06;;;;;;;11.45;2.20;;;;;;;-146.27;87.21;83887.06;5085934;28;20029;-66
2023/04/11 06:55:31;;;;;;;14.70;1.58;;;;;;;-146.27;86.26;83889.06;5074300;28;20028;-63
2023/04/11 06:57:56;;;;;;;14.05;2.35;;;;;;;-146.27;86.44;83848.88;5081391;28;20074;-64
2023/04/11 07:00:22;;;;;;;12.00;2.25;;;;;;;-146.27;86.83;83850.88;5081906;28;20480;-65
2023/04/11 07:02:47;;;;;;;11.77;1.63;;;;;;;-146.27;86.80;83850.88;5087788;28;20028;-65
2023/04/11 07:05:13;;;;;;;11.40;1.50;;;;;;;-146.27;85.78;83885.03;5089202;28;20024;-63
2023/04/11 07:07:39;;;;;;;12.40;1.83;;;;;;;-146.27;85.22;83877.00;5088784;28;20044;-65
2023/04/11 07:10:05;;;;;;;12.88;1.83;;;;;;;-146.27;84.84;83832.78;5090923;28;20020;-65
2023/04/11 07:12:31;;;;;;;15.85;1.95;;;;;;;-146.27;83.91;83846.84;5094323;28;20023;-67
2023/04/11 07:14:56;;;;;;;8.43;2.00;;;;;;;-146.27;83.18;83875.00;5090575;28;20031;-66
2023/04/11 07:17:21;;;;;;;13.75;1.95;;;;;;;-146.27;82.82;83852.88;5088805;28;20075;-68
2023/04/11 07:19:47;;;;;;;12.63;1.80;;;;;;;-146.27;83.45;83824.75;5087005;28;20020;-66
2023/04/11 07:22:12;;;;;;;11.70;2.03;;;;;;;-146.27;83.74;83842.84;5086621;28;20476;-66
2023/04/11 07:24:37;;;;;;;8.18;1.75;;;;;;;-146.27;83.60;83830.78;5091425;28;20040;-65
2023/04/11 07:27:03;;;;;;;13.38;2.55;;;;;;;-146.27;84.16;83818.72;5089024;28;20017;-66
2023/04/11 07:29:29;;;;;;;11.80;1.60;;;;;;;-146.27;82.68;83842.84;5087393;28;20441;-67
2023/04/11 07:31:55;;;;;;;15.07;1.92;;;;;;;-146.27;83.17;83812.69;5085449;28;20066;-67
2023/04/11 07:34:20;;;;;;;13.25;2.10;;;;;;;-146.27;83.06;83842.84;5089212;28;20100;-67
2023/04/11 07:36:46;;;;;;;8.32;1.40;;;;;;;-146.27;83.80;83802.66;5087918;28;20020;-67
2023/04/11 07:39:14;;;;;;;16.67;1.80;;;;;;;-146.27;83.23;83778.53;5093078;28;20044;-67
2023/04/11 07:41:39;;;;;;;13.73;1.88;;;;;;;-146.27;82.14;83782.56;5092465;28;20036;-71
2023/04/11 07:44:06;;;;;;;14.48;2.00;;;;;;;-146.27;82.91;83782.56;5092418;28;20367;-71
2023/04/11 07:46:32;;;;;;;8.38;1.90;;;;;;;-146.27;81.36;83782.56;5074973;28;20051;-70
2023/04/11 07:48:58;;;;;;;18.33;3.58;;;;;;;-146.27;81.98;83736.34;5091449;28;20024;-70
2023/04/11 07:51:23;;;;;;;11.10;2.13;;;;;;;-146.27;78.33;83782.56;5085104;28;20024;-70
2023/04/11 07:53:48;;;;;;;15.98;1.67;;;;;;;-146.27;78.60;83806.66;5081253;28;20027;-72
2023/04/11 07:56:14;;;;;;;12.30;1.52;;;;;;;-146.27;79.78;83822.75;5091513;28;20019;-69
2023/04/11 07:58:40;;;;;;;13.23;1.70;;;;;;;-146.27;80.74;83814.72;5080595;28;20024;-69
2023/04/11 08:01:17;;;;;;;7.80;1.35;;;;;;;-146.27;81.52;83804.66;5076181;28;20016;-71
2023/04/11 08:03:43;;;;;;;15.18;2.20;;;;;;;-146.27;81.27;83792.59;5078609;28;20491;-70
2023/04/11 08:06:08;;;;;;;13.15;1.90;;;;;;;-146.27;79.48;83762.47;5091167;28;20043;-71
2023/04/11 08:08:33;;;;;;;13.13;1.60;;;;;;;-146.27;78.20;83768.50;5092757;28;20044;-70
2023/04/11 08:10:59;;;;;;;9.80;1.38;;;;;;;-146.27;74.84;83758.44;5082976;28;20029;-71
2023/04/11 08:13:25;;;;;;;15.52;1.98;;;;;;;-146.27;76.97;83744.38;5072386;28;20255;-71
2023/04/11 08:15:50;;;;;;;11.80;2.88;;;;;;;-146.27;77.05;83738.34;5090142;28;20343;-70
2023/04/11 08:18:20;;;;;;;13.15;2.17;;;;;;;-146.27;74.62;83750.41;5077638;28;20107;-70
2023/04/11 08:20:45;;;;;;;9.50;1.55;;;;;;;-146.27;73.38;83754.44;5077319;28;20024;-71
2023/04/11 08:23:11;;;;;;;16.42;2.08;;;;;;;-146.27;74.02;83774.53;5090440;28;20027;-71
2023/04/11 08:25:36;;;;;;;8.73;1.17;;;;;;;-146.27;73.67;83726.28;5084796;28;20115;-71
2023/04/11 08:28:03;;;;;;;8.88;1.45;;;;;;;-146.27;72.76;83764.47;5091225;28;20103;-70
2023/04/11 08:30:28;;;;;;;13.40;1.75;;;;;;;-146.27;73.78;83770.50;5089601;28;20357;-69
2023/04/11 08:32:54;;;;;;;7.68;1.73;;;;;;;-146.27;73.78;83756.44;5087420;28;20026;-69
2023/04/11 08:35:19;;;;;;;8.32;1.60;;;;;;;-146.27;70.40;83728.31;5088781;28;20753;-69
2023/04/11 08:37:44;;;;;;;6.55;1.27;;;;;;;-146.27;70.30;83760.44;5090549;28;20429;-69
2023/04/11 08:40:10;;;;;;;7.70;1.00;;;;;;;-146.27;68.72;83698.16;5084003;28;20055;-69
2023/04/11 08:42:36;;;;;;;13.40;2.05;;;;;;;-146.27;69.63;83694.13;5087760;28;20047;-67
2023/04/11 08:45:04;;;;;;;14.25;1.35;;;;;;;-146.27;69.34;83700.16;5091760;28;20036;-66
2023/04/11 08:47:29;;;;;;;5.22;1.10;;;;;;;-146.27;69.78;83690.13;5076641;28;20052;-69
2023/04/11 08:49:58;;;;;;;11.88;2.60;;;;;;;-146.27;68.78;83657.97;5078561;28;20063;-68
2023/04/11 08:52:23;;;;;;;10.20;1.42;;;;;;;-146.27;65.40;83649.94;5081572;28;20016;-68
2023/04/11 08:54:54;;;;;;;8.75;1.10;;;;;;;-146.27;63.52;83629.84;5075943;28;20042;-68
2023/04/11 08:57:26;;;;;;;8.82;1.20;;;;;;;-146.27;63.32;83670.03;5079236;28;20115;-68
2023/04/11 08:59:55;;;;;;;9.70;1.55;;;;;;;-146.27;64.52;83629.84;5084336;28;20490;-69
2023/04/11 09:02:21;;;;;;;9.00;1.20;;;;;;;-146.27;61.76;83641.91;5081760;28;20486;-68
2023/04/11 09:04:47;;;;;;;14.88;2.15;;;;;;;-146.27;63.32;83649.94;5081909;28;20028;-66
2023/04/11 09:07:17;;;;;;;17.42;1.80;;;;;;;-146.27;62.15;83581.59;5084625;28;20040;-66
2023/04/11 09:09:44;;;;;;;18.23;1.50;;;;;;;-146.27;61.59;83585.63;5088347;28;20461;-66
2023/04/11 09:12:11;;;;;;;10.30;1.60;;;;;;;-146.27;58.37;83589.66;5082540;28;20036;-65
2023/04/11 09:14:36;;;;;;;6.95;1.30;;;;;;;-146.27;57.94;83547.44;5085220;28;20036;-67
2023/04/11 09:17:04;;;;;;;11.20;1.63;;;;;;;-146.27;57.75;83589.66;5078802;28;20494;-64
2023/04/11 09:19:32;;;;;;;8.32;1.65;;;;;;;-146.27;59.06;83565.53;5078384;28;20062;-65
2023/04/11 09:21:59;;;;;;;9.02;1.80;;;;;;;-146.27;58.25;83549.47;5079341;28;20434;-67
2023/04/11 09:24:26;;;;;;;10.10;1.13;;;;;;;-146.27;56.38;83543.44;5086104;28;20032;-67
2023/04/11 09:27:15;;;;;;;7.68;1.25;;;;;;;-146.27;55.28;83521.34;5091360;28;20103;-65
2023/04/11 09:29:47;;;;;;;9.85;1.05;;;;;;;-146.27;54.15;83539.41;5085452;28;20024;-64
2023/04/11 09:32:33;;;;;;;11.60;1.73;;;;;;;-146.27;57.80;83513.28;5091166;28;20468;-65
2023/04/11 09:35:08;;;;;;;8.68;1.52;;;;;;;-146.27;59.99;83525.34;5085337;28;20058;-66
2023/04/11 09:37:52;;;;;;;9.27;1.40;;;;;;;-146.27;57.02;83475.13;5081534;28;20059;-65
2023/04/11 09:40:21;;;;;;;8.77;1.73;;;;;;;-146.27;58.43;83517.31;5087364;28;20042;-66
2023/04/11 09:42:48;;;;;;;11.68;1.35;;;;;;;-146.27;52.94;83493.19;5084101;28;20035;-66
2023/04/11 09:45:21;;;;;;;8.77;1.35;;;;;;;-146.27;55.46;83487.16;5084559;28;20020;-67
2023/04/11 09:47:49;;;;;;;12.15;1.45;;;;;;;-146.27;55.89;83481.16;5090398;28;20368;-66
2023/04/11 09:50:15;;;;;;;8.25;1.55;;;;;;;-146.27;57.17;83483.16;5084544;28;20024;-66
2023/04/11 09:52:41;;;;;;;16.33;2.58;;;;;;;-146.27;54.83;83493.19;5091063;28;20066;-66
2023/04/11 09:55:10;;;;;;;13.20;1.48;;;;;;;-146.27;52.71;83519.31;5095660;28;20038;-66
2023/04/11 09:57:39;;;;;;;4.45;1.35;;;;;;;-146.27;57.02;83418.84;5096035;28;20068;-66
2023/04/11 10:00:17;;;;;;;6.90;2.55;;;;;;;-146.27;56.58;83288.25;5093542;28;20035;-66
2023/04/11 10:02:48;;;;;;;9.73;1.98;;;;;;;-146.27;54.70;83344.50;5085269;28;20368;-66
2023/04/11 10:05:17;;;;;;;7.22;1.70;;;;;;;-146.27;53.82;83312.34;5089985;28;20069;-66
2023/04/11 10:07:50;;;;;;;8.70;1.73;;;;;;;-146.27;48.87;83376.66;5091971;28;20063;-66
2023/04/11 10:10:25;;;;;;;12.82;1.98;;;;;;;-146.27;50.09;83380.69;5095618;28;20391;-66
2023/04/11 10:12:50;;;;;;;8.05;1.38;;;;;;;-146.27;51.16;83356.56;5094786;28;20433;-65
2023/04/11 10:15:17;;;;;;;12.82;1.70;;;;;;;-146.27;51.71;83342.50;5089979;28;20020;-65
2023/04/11 10:18:08;;;;;;;8.50;1.30;;;;;;;-146.27;50.56;83354.56;5091169;28;20027;-64
2023/04/11 10:20:34;;;;;;;6.40;1.40;;;;;;;-146.27;51.16;83278.19;5085651;28;20024;-64
2023/04/11 10:23:00;;;;;;;8.60;1.33;;;;;;;-146.27;48.93;83288.25;5095116;28;20023;-64
2023/04/11 10:25:26;;;;;;;8.23;1.55;;;;;;;-146.27;47.44;83272.19;5091307;28;20059;-65
2023/04/11 10:27:59;;;;;;;7.78;1.45;;;;;;;-146.27;49.05;83342.50;5094552;28;20065;-64
2023/04/11 10:30:40;;;;;;;10.68;1.52;;;;;;;-146.27;49.15;83276.19;5095342;28;20031;-64
2023/04/11 10:33:16;;;;;;;7.53;1.92;;;;;;;-146.27;46.98;83348.53;5094628;28;20110;-63
2023/04/11 10:36:02;;;;;;;11.88;1.92;;;;;;;-146.27;51.76;83388.72;5086291;28;20026;-63
2023/04/11 10:38:48;;;;;;;7.95;1.33;;;;;;;-146.27;48.94;83296.28;5095617;28;20095;-64
2023/04/11 10:41:26;;;;;;;5.57;1.48;;;;;;;-146.27;47.19;83332.44;5093799;28;20440;-63
2023/04/11 10:44:10;;;;;;;6.68;1.60;;;;;;;-146.27;47.16;83424.88;5092088;28;20190;-65
2023/04/11 10:46:43;;;;;;;9.45;1.38;;;;;;;-146.27;46.86;83457.03;5080100;28;20036;-65
2023/04/11 10:49:08;;;;;;;5.93;1.50;;;;;;;-146.27;46.61;83459.03;5074951;28;20392;-64
2023/04/11 10:51:34;;;;;;;10.13;1.63;;;;;;;-146.27;48.52;83360.59;5084789;28;20127;-65
2023/04/11 10:54:00;;;;;;;10.93;1.73;;;;;;;-146.27;49.69;83286.25;5094098;28;20119;-64
2023/04/11 10:56:50;;;;;;;15.65;2.70;;;;;;;-146.27;50.70;83284.22;5088775;28;20020;-66
2023/04/11 10:59:48;;;;;;;13.73;1.73;;;;;;;-146.27;50.14;83171.72;5089644;28;20399;-65
2023/04/11 11:02:15;;;;;;;9.60;1.30;;;;;;;-146.27;47.60;83179.75;5071379;28;20471;-64
2023/04/11 11:04:40;;;;;;;6.78;1.52;;;;;;;-146.27;47.42;83139.56;5086953;28;20028;-64
2023/04/11 11:07:14;;;;;;;10.13;1.70;;;;;;;-146.27;44.46;83133.53;5081443;28;20048;-64
2023/04/11 11:09:39;;;;;;;6.90;1.40;;;;;;;-146.27;43.96;83105.41;5095002;28;20061;-65
2023/04/11 11:12:09;;;;;;;10.35;1.83;;;;;;;-146.27;44.04;83023.03;5094587;28;20031;-64